createdAt,value
2018-11-06T00:00:41.949Z,1003.72
2018-11-06T00:01:41.851Z,1003.70
2018-11-06T00:02:41.957Z,1003.69
2018-11-06T00:03:41.877Z,1003.70
2018-11-06T00:04:41.760Z,1003.70
2018-11-06T00:05:41.882Z,1003.70
2018-11-06T00:06:41.717Z,1003.72
2018-11-06T00:07:41.788Z,1003.67
2018-11-06T00:08:41.799Z,1003.67
2018-11-06T00:09:41.630Z,1003.66
2018-11-06T00:10:41.710Z,1003.68
2018-11-06T00:11:41.572Z,1003.68
2018-11-06T00:12:41.623Z,1003.66
2018-11-06T00:13:41.521Z,1003.64
2018-11-06T00:14:41.489Z,1003.63
2018-11-06T00:15:41.638Z,1003.65
2018-11-06T00:16:41.440Z,1003.65
2018-11-06T00:17:41.558Z,1003.62
2018-11-06T00:18:41.390Z,1003.65
2018-11-06T00:19:41.360Z,1003.58
2018-11-06T00:20:41.338Z,1003.60
2018-11-06T00:21:41.480Z,1003.58
2018-11-06T00:22:41.284Z,1003.56
2018-11-06T00:23:41.405Z,1003.53
2018-11-06T00:24:41.221Z,1003.53
2018-11-06T00:25:41.317Z,1003.56
2018-11-06T00:26:41.180Z,1003.54
2018-11-06T00:27:42.242Z,1003.53
2018-11-06T00:28:41.119Z,1003.53
2018-11-06T00:29:41.165Z,1003.52
2018-11-06T00:30:41.074Z,1003.51
2018-11-06T00:31:41.137Z,1003.51
2018-11-06T00:32:41.018Z,1003.50
2018-11-06T00:33:41.159Z,1003.47
2018-11-06T00:34:40.960Z,1003.47
2018-11-06T00:35:40.933Z,1003.50
2018-11-06T00:36:40.909Z,1003.48
2018-11-06T00:37:40.982Z,1003.48
2018-11-06T00:38:40.851Z,1003.49
2018-11-06T00:39:41.008Z,1003.47
2018-11-06T00:40:40.799Z,1003.45
2018-11-06T00:41:40.911Z,1003.44
2018-11-06T00:42:40.741Z,1003.44
2018-11-06T00:43:40.819Z,1003.43
2018-11-06T00:44:40.690Z,1003.44
2018-11-06T00:45:40.830Z,1003.39
2018-11-06T00:46:40.633Z,1003.43
2018-11-06T00:47:40.744Z,1003.41
2018-11-06T00:48:40.583Z,1003.39
2018-11-06T00:49:40.578Z,1003.44
2018-11-06T00:50:40.530Z,1003.41
2018-11-06T00:51:40.500Z,1003.39
2018-11-06T00:52:40.680Z,1003.39
2018-11-06T00:53:40.442Z,1003.36
2018-11-06T00:54:40.599Z,1003.39
2018-11-06T00:55:40.389Z,1003.37
2018-11-06T00:56:40.500Z,1003.39
2018-11-06T00:57:40.349Z,1003.32
2018-11-06T00:58:40.510Z,1003.39
2018-11-06T00:59:40.294Z,1003.37
2018-11-06T01:00:40.436Z,1003.36
2018-11-06T01:01:40.218Z,1003.40
2018-11-06T01:02:40.208Z,1003.42
2018-11-06T01:03:40.235Z,1003.42
2018-11-06T01:04:40.348Z,1003.42
2018-11-06T01:05:40.181Z,1003.45
2018-11-06T01:06:40.257Z,1003.45
2018-11-06T01:07:40.268Z,1003.46
2018-11-06T01:08:40.047Z,1003.50
2018-11-06T01:09:40.177Z,1003.49
2018-11-06T01:10:39.998Z,1003.51
2018-11-06T01:11:40.087Z,1003.50
2018-11-06T01:12:39.948Z,1003.48
2018-11-06T01:13:40.128Z,1003.52
2018-11-06T01:14:39.881Z,1003.48
2018-11-06T01:15:40.038Z,1003.49
2018-11-06T01:16:39.818Z,1003.49
2018-11-06T01:17:39.848Z,1003.53
2018-11-06T01:18:39.770Z,1003.47
2018-11-06T01:19:39.837Z,1003.46
2018-11-06T01:20:39.720Z,1003.48
2018-11-06T01:21:39.749Z,1003.51
2018-11-06T01:22:39.680Z,1003.50
2018-11-06T01:23:39.636Z,1003.50
2018-11-06T01:24:39.610Z,1003.50
2018-11-06T01:25:39.691Z,1003.47
2018-11-06T01:26:39.555Z,1003.50
2018-11-06T01:27:39.590Z,1003.46
2018-11-06T01:28:39.509Z,1003.47
2018-11-06T01:29:39.501Z,1003.43
2018-11-06T01:30:39.450Z,1003.44
2018-11-06T01:31:39.529Z,1003.41
2018-11-06T01:32:39.389Z,1003.43
2018-11-06T01:33:39.447Z,1003.39
2018-11-06T01:34:39.330Z,1003.42
2018-11-06T01:35:39.354Z,1003.40
2018-11-06T01:36:39.286Z,1003.39
2018-11-06T01:37:39.358Z,1003.36
2018-11-06T01:38:39.225Z,1003.39
2018-11-06T01:39:39.201Z,1003.31
2018-11-06T01:40:39.179Z,1003.32
2018-11-06T01:41:39.187Z,1003.33
2018-11-06T01:42:39.109Z,1003.34
2018-11-06T01:43:39.190Z,1003.30
2018-11-06T01:44:39.060Z,1003.28
2018-11-06T01:45:39.108Z,1003.27
2018-11-06T01:46:38.999Z,1003.27
2018-11-06T01:47:39.120Z,1003.25
2018-11-06T01:48:38.957Z,1003.26
2018-11-06T01:49:39.032Z,1003.27
2018-11-06T01:50:38.899Z,1003.32
2018-11-06T01:51:38.939Z,1003.29
2018-11-06T01:52:38.854Z,1003.27
2018-11-06T01:53:38.959Z,1003.31
2018-11-06T01:54:38.790Z,1003.26
2018-11-06T01:55:38.769Z,1003.28
2018-11-06T01:56:38.730Z,1003.25
2018-11-06T01:57:38.780Z,1003.27
2018-11-06T01:58:38.681Z,1003.25
2018-11-06T01:59:38.798Z,1003.24
2018-11-06T02:00:38.621Z,1003.24
2018-11-06T02:01:38.709Z,1003.23
2018-11-06T02:02:38.569Z,1003.22
2018-11-06T02:03:38.620Z,1003.20
2018-11-06T02:04:38.519Z,1003.21
2018-11-06T02:05:38.641Z,1003.23
2018-11-06T02:06:38.470Z,1003.20
2018-11-06T02:07:38.539Z,1003.20
2018-11-06T02:08:38.418Z,1003.24
2018-11-06T02:09:38.458Z,1003.26
2018-11-06T02:10:38.357Z,1003.26
2018-11-06T02:11:38.328Z,1003.23
2018-11-06T02:12:38.300Z,1003.26
2018-11-06T02:13:38.380Z,1003.26
2018-11-06T02:14:38.237Z,1003.20
2018-11-06T02:15:38.290Z,1003.22
2018-11-06T02:16:38.197Z,1003.19
2018-11-06T02:17:38.158Z,1003.16
2018-11-06T02:18:38.208Z,1003.12
2018-11-06T02:19:38.098Z,1003.12
2018-11-06T02:20:38.229Z,1003.09
2018-11-06T02:21:38.048Z,1003.11
2018-11-06T02:22:38.019Z,1003.14
2018-11-06T02:23:37.998Z,1003.13
2018-11-06T02:24:38.049Z,1003.10
2018-11-06T02:25:37.937Z,1003.07
2018-11-06T02:26:38.069Z,1003.05
2018-11-06T02:27:37.978Z,1003.06
2018-11-06T02:28:37.868Z,1003.06
2018-11-06T02:29:37.979Z,1003.04
2018-11-06T02:30:37.809Z,1003.08
2018-11-06T02:31:37.908Z,1003.08
2018-11-06T02:32:37.952Z,1003.18
2018-11-06T02:33:37.720Z,1003.16
2018-11-06T02:34:37.812Z,1003.14
2018-11-06T02:35:37.670Z,1003.07
2018-11-06T02:36:37.730Z,1003.07
2018-11-06T02:37:37.625Z,1002.98
2018-11-06T02:38:37.592Z,1002.96
2018-11-06T02:39:37.559Z,1002.88
2018-11-06T02:40:37.548Z,1002.85
2018-11-06T02:41:37.508Z,1002.84
2018-11-06T02:42:37.560Z,1002.89
2018-11-06T02:43:37.459Z,1002.90
2018-11-06T02:44:37.469Z,1002.96
2018-11-06T02:45:37.402Z,1003.05
2018-11-06T02:46:37.398Z,1003.06
2018-11-06T02:47:37.347Z,1003.05
2018-11-06T02:48:37.459Z,1003.04
2018-11-06T02:49:37.297Z,1003.04
2018-11-06T02:50:37.310Z,1003.01
2018-11-06T02:51:37.238Z,1002.98
2018-11-06T02:52:37.230Z,1002.95
2018-11-06T02:53:37.179Z,1002.96
2018-11-06T02:54:37.163Z,1003.08
2018-11-06T02:55:37.180Z,1003.15
2018-11-06T02:56:37.158Z,1003.18
2018-11-06T02:57:37.068Z,1003.27
2018-11-06T02:58:37.059Z,1003.26
2018-11-06T02:59:37.068Z,1003.25
2018-11-06T03:00:36.989Z,1003.20
2018-11-06T03:01:36.978Z,1003.16
2018-11-06T03:02:36.939Z,1003.11
2018-11-06T03:03:37.000Z,1003.11
2018-11-06T03:04:36.887Z,1003.10
2018-11-06T03:05:36.859Z,1003.08
2018-11-06T03:06:36.918Z,1003.09
2018-11-06T03:07:36.809Z,1003.12
2018-11-06T03:08:36.828Z,1003.14
2018-11-06T03:09:36.749Z,1003.12
2018-11-06T03:10:36.732Z,1003.11
2018-11-06T03:11:36.749Z,1003.13
2018-11-06T03:12:36.668Z,1003.14
2018-11-06T03:13:36.760Z,1003.17
2018-11-06T03:14:36.617Z,1003.17
2018-11-06T03:15:36.590Z,1003.15
2018-11-06T03:16:36.616Z,1003.09
2018-11-06T03:17:36.689Z,1003.07
2018-11-06T03:18:36.514Z,1003.07
2018-11-06T03:19:36.701Z,1003.10
2018-11-06T03:20:36.458Z,1003.11
2018-11-06T03:21:36.428Z,1003.14
2018-11-06T03:22:36.627Z,1003.15
2018-11-06T03:23:36.386Z,1003.17
2018-11-06T03:24:36.528Z,1003.23
2018-11-06T03:25:36.325Z,1003.31
2018-11-06T03:26:36.302Z,1003.32
2018-11-06T03:27:36.277Z,1003.35
2018-11-06T03:28:36.361Z,1003.38
2018-11-06T03:29:36.225Z,1003.35
2018-11-06T03:30:36.270Z,1003.30
2018-11-06T03:31:36.169Z,1003.31
2018-11-06T03:32:36.194Z,1003.25
2018-11-06T03:33:36.109Z,1003.27
2018-11-06T03:34:36.195Z,1003.23
2018-11-06T03:35:36.066Z,1003.25
2018-11-06T03:36:36.090Z,1003.27
2018-11-06T03:37:36.009Z,1003.29
2018-11-06T03:38:36.019Z,1003.31
2018-11-06T03:39:35.950Z,1003.29
2018-11-06T03:40:36.027Z,1003.30
2018-11-06T03:41:35.897Z,1003.41
2018-11-06T03:42:35.870Z,1003.42
2018-11-06T03:43:35.847Z,1003.41
2018-11-06T03:44:35.949Z,1003.47
2018-11-06T03:45:35.788Z,1003.50
2018-11-06T03:46:35.868Z,1003.53
2018-11-06T03:47:35.748Z,1003.51
2018-11-06T03:48:35.778Z,1003.50
2018-11-06T03:49:35.688Z,1003.48
2018-11-06T03:50:35.789Z,1003.43
2018-11-06T03:51:35.639Z,1003.44
2018-11-06T03:52:35.700Z,1003.42
2018-11-06T03:53:35.587Z,1003.47
2018-11-06T03:54:35.619Z,1003.45
2018-11-06T03:55:35.526Z,1003.44
2018-11-06T03:56:35.628Z,1003.46
2018-11-06T03:57:35.476Z,1003.45
2018-11-06T03:58:35.451Z,1003.41
2018-11-06T03:59:35.426Z,1003.40
2018-11-06T04:00:35.448Z,1003.43
2018-11-06T04:01:35.373Z,1003.42
2018-11-06T04:02:35.467Z,1003.41
2018-11-06T04:03:35.317Z,1003.35
2018-11-06T04:04:35.378Z,1003.32
2018-11-06T04:05:35.268Z,1003.33
2018-11-06T04:06:35.390Z,1003.30
2018-11-06T04:07:35.207Z,1003.30
2018-11-06T04:08:35.305Z,1003.30
2018-11-06T04:09:35.166Z,1003.37
2018-11-06T04:10:35.217Z,1003.36
2018-11-06T04:11:35.118Z,1003.42
2018-11-06T04:12:35.227Z,1003.40
2018-11-06T04:13:35.049Z,1003.36
2018-11-06T04:14:35.029Z,1003.35
2018-11-06T04:15:35.148Z,1003.35
2018-11-06T04:16:34.979Z,1003.33
2018-11-06T04:17:35.059Z,1003.29
2018-11-06T04:18:34.927Z,1003.36
2018-11-06T04:19:34.900Z,1003.40
2018-11-06T04:20:34.878Z,1003.40
2018-11-06T04:21:34.990Z,1003.38
2018-11-06T04:22:34.826Z,1003.38
2018-11-06T04:23:34.907Z,1003.39
2018-11-06T04:24:34.774Z,1003.37
2018-11-06T04:25:34.807Z,1003.39
2018-11-06T04:26:34.717Z,1003.36
2018-11-06T04:27:34.818Z,1003.38
2018-11-06T04:28:34.659Z,1003.42
2018-11-06T04:29:34.746Z,1003.45
2018-11-06T04:30:34.740Z,1003.45
2018-11-06T04:31:34.581Z,1003.44
2018-11-06T04:32:34.648Z,1003.38
2018-11-06T04:33:34.530Z,1003.39
2018-11-06T04:34:34.669Z,1003.39
2018-11-06T04:35:34.581Z,1003.38
2018-11-06T04:36:34.453Z,1003.36
2018-11-06T04:37:34.589Z,1003.38
2018-11-06T04:38:34.402Z,1003.33
2018-11-06T04:39:34.501Z,1003.33
2018-11-06T04:40:34.382Z,1003.32
2018-11-06T04:41:34.418Z,1003.29
2018-11-06T04:42:34.300Z,1003.27
2018-11-06T04:43:34.431Z,1003.26
2018-11-06T04:44:34.242Z,1003.30
2018-11-06T04:45:34.271Z,1003.28
2018-11-06T04:46:34.193Z,1003.26
2018-11-06T04:47:34.350Z,1003.24
2018-11-06T04:48:34.137Z,1003.26
2018-11-06T04:49:34.265Z,1003.28
2018-11-06T04:50:34.088Z,1003.27
2018-11-06T04:51:34.067Z,1003.29
2018-11-06T04:52:34.047Z,1003.23
2018-11-06T04:53:34.190Z,1003.23
2018-11-06T04:54:33.978Z,1003.22
2018-11-06T04:55:34.099Z,1003.19
2018-11-06T04:56:33.930Z,1003.21
2018-11-06T04:57:34.009Z,1003.23
2018-11-06T04:58:33.889Z,1003.20
2018-11-06T04:59:34.032Z,1003.24
2018-11-06T05:00:33.827Z,1003.16
2018-11-06T05:01:33.940Z,1003.19
2018-11-06T05:02:33.769Z,1003.15
2018-11-06T05:03:33.847Z,1003.16
2018-11-06T05:04:33.719Z,1003.10
2018-11-06T05:05:33.868Z,1003.10
2018-11-06T05:06:33.671Z,1003.09
2018-11-06T05:07:33.639Z,1003.06
2018-11-06T05:08:33.779Z,1003.11
2018-11-06T05:09:33.592Z,1003.10
2018-11-06T05:10:33.699Z,1003.07
2018-11-06T05:11:33.545Z,1003.07
2018-11-06T05:12:33.510Z,1003.05
2018-11-06T05:13:33.490Z,1003.08
2018-11-06T05:14:33.619Z,1003.04
2018-11-06T05:15:33.440Z,1003.07
2018-11-06T05:16:33.528Z,1003.07
2018-11-06T05:17:33.387Z,1003.12
2018-11-06T05:18:33.347Z,1003.11
2018-11-06T05:19:33.448Z,1003.13
2018-11-06T05:20:33.293Z,1003.08
2018-11-06T05:21:33.466Z,1003.05
2018-11-06T05:22:33.250Z,1003.02
2018-11-06T05:23:33.226Z,1003.01
2018-11-06T05:24:33.200Z,1002.99
2018-11-06T05:25:33.373Z,1003.01
2018-11-06T05:26:33.200Z,1002.96
2018-11-06T05:27:33.329Z,1002.91
2018-11-06T05:28:33.091Z,1002.98
2018-11-06T05:29:33.207Z,1003.00
2018-11-06T05:30:33.039Z,1003.03
2018-11-06T05:31:33.229Z,1003.00
2018-11-06T05:32:32.996Z,1003.07
2018-11-06T05:33:33.141Z,1003.12
2018-11-06T05:34:32.943Z,1003.08
2018-11-06T05:35:33.049Z,1003.08
2018-11-06T05:36:32.888Z,1003.09
2018-11-06T05:37:32.960Z,1003.13
2018-11-06T05:38:32.829Z,1003.11
2018-11-06T05:39:32.854Z,1003.14
2018-11-06T05:40:32.781Z,1003.16
2018-11-06T05:41:32.790Z,1003.20
2018-11-06T05:42:32.734Z,1003.21
2018-11-06T05:43:32.802Z,1003.27
2018-11-06T05:44:32.679Z,1003.29
2018-11-06T05:45:32.768Z,1003.28
2018-11-06T05:46:32.630Z,1003.30
2018-11-06T05:47:32.728Z,1003.30
2018-11-06T05:48:32.568Z,1003.29
2018-11-06T05:49:32.640Z,1003.25
2018-11-06T05:50:32.519Z,1003.28
2018-11-06T05:51:32.550Z,1003.27
2018-11-06T05:52:32.462Z,1003.32
2018-11-06T05:53:32.559Z,1003.32
2018-11-06T05:54:32.425Z,1003.33
2018-11-06T05:55:32.387Z,1003.40
2018-11-06T05:56:32.369Z,1003.46
2018-11-06T05:57:32.389Z,1003.49
2018-11-06T05:58:32.307Z,1003.55
2018-11-06T05:59:32.401Z,1003.56
2018-11-06T06:00:32.331Z,1003.54
2018-11-06T06:01:32.315Z,1003.57
2018-11-06T06:02:32.207Z,1003.56
2018-11-06T06:03:32.218Z,1003.57
2018-11-06T06:04:32.159Z,1003.54
2018-11-06T06:05:32.238Z,1003.51
2018-11-06T06:06:32.111Z,1003.47
2018-11-06T06:07:32.150Z,1003.49
2018-11-06T06:08:32.048Z,1003.52
2018-11-06T06:09:32.158Z,1003.51
2018-11-06T06:10:32.007Z,1003.55
2018-11-06T06:11:31.980Z,1003.55
2018-11-06T06:12:31.949Z,1003.61
2018-11-06T06:13:31.987Z,1003.60
2018-11-06T06:14:31.905Z,1003.58
2018-11-06T06:15:32.001Z,1003.59
2018-11-06T06:16:31.909Z,1003.57
2018-11-06T06:17:31.911Z,1003.56
2018-11-06T06:18:31.800Z,1003.54
2018-11-06T06:19:31.830Z,1003.61
2018-11-06T06:20:31.739Z,1003.59
2018-11-06T06:21:31.839Z,1003.62
2018-11-06T06:22:31.721Z,1003.59
2018-11-06T06:23:31.658Z,1003.58
2018-11-06T06:24:31.762Z,1003.59
2018-11-06T06:25:31.618Z,1003.59
2018-11-06T06:26:31.668Z,1003.65
2018-11-06T06:27:31.680Z,1003.65
2018-11-06T06:28:31.592Z,1003.65
2018-11-06T06:29:31.591Z,1003.67
2018-11-06T06:30:31.481Z,1003.64
2018-11-06T06:31:31.599Z,1003.67
2018-11-06T06:32:31.428Z,1003.66
2018-11-06T06:33:31.512Z,1003.71
2018-11-06T06:34:31.391Z,1003.69
2018-11-06T06:35:31.439Z,1003.72
2018-11-06T06:36:31.328Z,1003.72
2018-11-06T06:37:31.446Z,1003.73
2018-11-06T06:38:31.366Z,1003.73
2018-11-06T06:39:31.254Z,1003.65
2018-11-06T06:40:31.359Z,1003.68
2018-11-06T06:41:31.189Z,1003.68
2018-11-06T06:42:31.274Z,1003.70
2018-11-06T06:43:31.281Z,1003.71
2018-11-06T06:44:31.118Z,1003.69
2018-11-06T06:45:31.190Z,1003.66
2018-11-06T06:46:31.175Z,1003.70
2018-11-06T06:47:31.204Z,1003.68
2018-11-06T06:48:31.009Z,1003.74
2018-11-06T06:49:30.989Z,1003.68
2018-11-06T06:50:31.121Z,1003.73
2018-11-06T06:51:30.945Z,1003.77
2018-11-06T06:52:31.027Z,1003.76
2018-11-06T06:53:30.887Z,1003.74
2018-11-06T06:54:30.985Z,1003.75
2018-11-06T06:55:30.951Z,1003.81
2018-11-06T06:56:30.815Z,1003.83
2018-11-06T06:57:30.859Z,1003.79
2018-11-06T06:58:30.748Z,1003.79
2018-11-06T06:59:30.728Z,1003.81
2018-11-06T07:00:30.887Z,1003.78
2018-11-06T07:01:30.669Z,1003.74
2018-11-06T07:02:30.807Z,1003.76
2018-11-06T07:03:30.618Z,1003.76
2018-11-06T07:04:30.600Z,1003.77
2018-11-06T07:05:30.576Z,1003.80
2018-11-06T07:06:30.722Z,1003.80
2018-11-06T07:07:30.530Z,1003.86
2018-11-06T07:08:30.638Z,1003.86
2018-11-06T07:09:30.467Z,1003.91
2018-11-06T07:10:30.448Z,1003.91
2018-11-06T07:11:30.553Z,1003.97
2018-11-06T07:12:30.387Z,1003.99
2018-11-06T07:13:30.470Z,1004.03
2018-11-06T07:14:30.337Z,1004.02
2018-11-06T07:15:30.315Z,1004.07
2018-11-06T07:16:30.288Z,1004.10
2018-11-06T07:17:30.391Z,1004.14
2018-11-06T07:18:30.238Z,1004.19
2018-11-06T07:19:30.409Z,1004.22
2018-11-06T07:20:30.309Z,1004.23
2018-11-06T07:21:30.160Z,1004.27
2018-11-06T07:22:30.337Z,1004.24
2018-11-06T07:23:30.107Z,1004.24
2018-11-06T07:24:30.237Z,1004.21
2018-11-06T07:25:30.048Z,1004.25
2018-11-06T07:26:30.147Z,1004.20
2018-11-06T07:27:30.003Z,1004.25
2018-11-06T07:28:30.171Z,1004.27
2018-11-06T07:29:29.948Z,1004.23
2018-11-06T07:30:30.074Z,1004.26
2018-11-06T07:31:29.898Z,1004.26
2018-11-06T07:32:29.990Z,1004.27
2018-11-06T07:33:29.848Z,1004.26
2018-11-06T07:34:30.007Z,1004.29
2018-11-06T07:35:29.922Z,1004.23
2018-11-06T07:36:29.768Z,1004.26
2018-11-06T07:37:29.743Z,1004.21
2018-11-06T07:38:29.829Z,1004.18
2018-11-06T07:39:29.705Z,1004.26
2018-11-06T07:40:29.883Z,1004.24
2018-11-06T07:41:29.840Z,1004.25
2018-11-06T07:42:29.617Z,1004.28
2018-11-06T07:43:29.757Z,1004.29
2018-11-06T07:44:29.577Z,1004.28
2018-11-06T07:45:29.669Z,1004.25
2018-11-06T07:46:29.517Z,1004.24
2018-11-06T07:47:29.498Z,1004.18
2018-11-06T07:48:29.480Z,1004.21
2018-11-06T07:49:29.437Z,1004.23
2018-11-06T07:50:29.560Z,1004.17
2018-11-06T07:51:29.379Z,1004.20
2018-11-06T07:52:29.358Z,1004.19
2018-11-06T07:53:29.338Z,1004.19
2018-11-06T07:54:29.432Z,1004.16
2018-11-06T07:55:29.297Z,1004.14
2018-11-06T07:56:29.338Z,1004.17
2018-11-06T07:57:29.336Z,1004.16
2018-11-06T07:58:29.208Z,1004.18
2018-11-06T07:59:29.257Z,1004.16
2018-11-06T08:00:29.157Z,1004.15
2018-11-06T08:01:29.169Z,1004.20
2018-11-06T08:02:29.097Z,1004.19
2018-11-06T08:03:29.079Z,1004.23
2018-11-06T08:04:29.260Z,1004.25
2018-11-06T08:05:29.029Z,1004.25
2018-11-06T08:06:29.202Z,1004.26
2018-11-06T08:07:28.978Z,1004.31
2018-11-06T08:08:28.950Z,1004.34
2018-11-06T08:09:29.057Z,1004.32
2018-11-06T08:10:28.899Z,1004.35
2018-11-06T08:11:28.929Z,1004.39
2018-11-06T08:12:28.848Z,1004.34
2018-11-06T08:13:28.834Z,1004.33
2018-11-06T08:14:28.858Z,1004.38
2018-11-06T08:15:28.857Z,1004.33
2018-11-06T08:16:28.759Z,1004.32
2018-11-06T08:17:28.869Z,1004.32
2018-11-06T08:18:28.699Z,1004.32
2018-11-06T08:19:28.779Z,1004.29
2018-11-06T08:20:28.712Z,1004.29
2018-11-06T08:21:28.686Z,1004.27
2018-11-06T08:22:28.598Z,1004.26
2018-11-06T08:23:28.670Z,1004.22
2018-11-06T08:24:28.548Z,1004.22
2018-11-06T08:25:28.616Z,1004.20
2018-11-06T08:26:28.509Z,1004.22
2018-11-06T08:27:28.562Z,1004.19
2018-11-06T08:28:28.447Z,1004.25
2018-11-06T08:29:28.432Z,1004.25
2018-11-06T08:30:28.414Z,1004.23
2018-11-06T08:31:29.093Z,1004.18
2018-11-06T08:32:28.867Z,1004.23
2018-11-06T08:33:28.428Z,1004.24
2018-11-06T08:34:28.307Z,1004.22
2018-11-06T08:35:28.338Z,1004.24
2018-11-06T08:36:28.304Z,1004.23
2018-11-06T08:37:28.248Z,1004.25
2018-11-06T08:38:28.196Z,1004.23
2018-11-06T08:40:59.958Z,1004.27
2018-11-06T08:41:59.868Z,1004.21
2018-11-06T08:42:59.957Z,1004.27
2018-11-06T08:43:59.818Z,1004.19
2018-11-06T08:44:59.790Z,1004.21
2018-11-06T08:45:59.774Z,1004.22
2018-11-06T08:46:59.768Z,1004.24
2018-11-06T08:47:59.777Z,1004.25
2018-11-06T08:48:59.779Z,1004.25
2018-11-06T08:49:59.667Z,1004.24
2018-11-06T08:50:59.687Z,1004.23
2018-11-06T08:51:59.629Z,1004.25
2018-11-06T08:52:59.698Z,1004.31
2018-11-06T08:53:59.576Z,1004.30
2018-11-06T08:54:59.609Z,1004.28
2018-11-06T08:55:59.520Z,1004.31
2018-11-06T08:56:59.524Z,1004.33
2018-11-06T08:57:59.479Z,1004.31
2018-11-06T08:58:59.528Z,1004.33
2018-11-06T08:59:59.425Z,1004.33
2018-11-06T09:00:59.400Z,1004.37
2018-11-06T09:01:59.382Z,1004.40
2018-11-06T09:02:59.566Z,1004.50
2018-11-06T09:03:59.336Z,1004.44
2018-11-06T09:04:59.467Z,1004.45
2018-11-06T09:05:59.287Z,1004.47
2018-11-06T09:06:59.376Z,1004.45
2018-11-06T09:07:59.248Z,1004.46
2018-11-06T09:08:59.431Z,1004.46
2018-11-06T09:09:59.208Z,1004.45
2018-11-06T09:10:59.300Z,1004.44
2018-11-06T09:11:59.148Z,1004.49
2018-11-06T09:12:59.320Z,1004.46
2018-11-06T09:13:59.114Z,1004.49
2018-11-06T09:14:59.126Z,1004.57
2018-11-06T09:15:59.072Z,1004.58
2018-11-06T09:16:59.078Z,1004.61
2018-11-06T09:17:59.029Z,1004.60
2018-11-06T09:18:59.057Z,1004.60
2018-11-06T09:19:58.978Z,1004.64
2018-11-06T09:20:59.068Z,1004.69
2018-11-06T09:21:58.950Z,1004.79
2018-11-06T09:22:58.982Z,1004.85
2018-11-06T09:23:58.905Z,1004.86
2018-11-06T09:24:58.997Z,1005.04
2018-11-06T09:25:58.877Z,1005.34
2018-11-06T09:26:58.908Z,1005.29
2018-11-06T09:27:58.834Z,1005.21
2018-11-06T09:28:58.918Z,1005.27
2018-11-06T09:29:58.798Z,1005.18
2018-11-06T09:30:58.860Z,1005.20
2018-11-06T09:31:58.758Z,1005.19
2018-11-06T09:32:58.738Z,1005.23
2018-11-06T09:33:58.717Z,1005.27
2018-11-06T09:34:58.781Z,1005.13
2018-11-06T09:35:58.702Z,1005.23
2018-11-06T09:36:58.769Z,1005.19
2018-11-06T09:37:58.664Z,1005.03
2018-11-06T09:38:58.800Z,1005.00
2018-11-06T09:39:58.637Z,1005.09
2018-11-06T09:40:58.699Z,1005.16
2018-11-06T09:41:58.609Z,1005.13
2018-11-06T09:42:58.725Z,1005.13
2018-11-06T09:43:58.581Z,1005.10
2018-11-06T09:44:58.674Z,1005.15
2018-11-06T09:45:58.559Z,1005.22
2018-11-06T09:46:58.637Z,1005.21
2018-11-06T09:47:58.538Z,1005.25
2018-11-06T09:48:58.520Z,1005.23
2018-11-06T09:49:58.531Z,1005.27
2018-11-06T09:50:58.568Z,1005.13
2018-11-06T09:51:58.503Z,1005.19
2018-11-06T09:52:58.580Z,1005.24
2018-11-06T09:53:58.469Z,1005.22
2018-11-06T09:54:58.595Z,1005.30
2018-11-06T09:55:58.448Z,1005.21
2018-11-06T09:56:58.513Z,1005.12
2018-11-06T09:57:58.427Z,1005.04
2018-11-06T09:58:58.523Z,1005.04
2018-11-06T09:59:58.532Z,1005.04
2018-11-06T10:00:58.399Z,1005.02
2018-11-06T10:01:58.542Z,1005.02
2018-11-06T10:02:58.381Z,1004.95
2018-11-06T10:03:58.471Z,1005.10
2018-11-06T10:04:58.368Z,1005.06
2018-11-06T10:05:58.515Z,1005.12
2018-11-06T10:06:58.649Z,1005.07
2018-11-06T10:07:58.555Z,1005.09
2018-11-06T10:08:58.332Z,1005.09
2018-11-06T10:09:58.388Z,1005.03
2018-11-06T10:10:58.309Z,1005.03
2018-11-06T10:11:58.407Z,1005.11
2018-11-06T10:12:58.299Z,1005.17
2018-11-06T10:13:58.420Z,1005.13
2018-11-06T10:14:58.280Z,1005.09
2018-11-06T10:15:58.274Z,1005.10
2018-11-06T10:16:58.269Z,1005.03
2018-11-06T10:17:58.351Z,1004.99
2018-11-06T10:18:58.251Z,1004.89
2018-11-06T10:19:58.358Z,1004.99
2018-11-06T10:20:58.247Z,1004.98
2018-11-06T10:21:58.368Z,1004.93
2018-11-06T10:22:58.230Z,1005.03
2018-11-06T10:23:58.388Z,1005.15
2018-11-06T10:24:58.214Z,1005.06
2018-11-06T10:25:58.237Z,1005.22
2018-11-06T10:26:58.309Z,1005.20
2018-11-06T10:27:58.196Z,1005.14
2018-11-06T10:28:58.324Z,1005.19
2018-11-06T10:29:58.181Z,1005.19
2018-11-06T10:30:58.455Z,1004.97
2018-11-06T10:31:58.167Z,1004.66
2018-11-06T10:32:58.250Z,1004.86
2018-11-06T10:33:58.147Z,1004.95
2018-11-06T10:34:58.259Z,1005.09
2018-11-06T10:35:58.140Z,1005.06
2018-11-06T10:36:58.281Z,1004.96
2018-11-06T10:37:58.275Z,1005.04
2018-11-06T10:38:58.109Z,1004.99
2018-11-06T10:39:58.188Z,1004.95
2018-11-06T10:40:58.090Z,1004.96
2018-11-06T10:41:58.208Z,1004.90
2018-11-06T10:42:58.087Z,1004.90
2018-11-06T10:43:58.218Z,1005.00
2018-11-06T10:44:58.068Z,1005.00
2018-11-06T10:45:58.238Z,1005.04
2018-11-06T10:46:58.048Z,1005.01
2018-11-06T10:47:58.148Z,1005.03
2018-11-06T10:48:58.044Z,1004.97
2018-11-06T10:49:58.158Z,1004.83
2018-11-06T10:50:58.039Z,1004.75
2018-11-06T10:51:58.244Z,1004.80
2018-11-06T10:52:58.007Z,1004.80
2018-11-06T10:53:58.022Z,1004.82
2018-11-06T10:54:57.999Z,1004.83
2018-11-06T10:55:58.027Z,1004.79
2018-11-06T10:56:57.998Z,1004.90
2018-11-06T10:57:58.077Z,1004.79
2018-11-06T10:58:57.969Z,1004.79
2018-11-06T10:59:58.037Z,1004.76
2018-11-06T11:00:57.958Z,1005.02
2018-11-06T11:01:58.048Z,1005.10
2018-11-06T11:02:57.962Z,1005.01
2018-11-06T11:03:57.985Z,1004.90
2018-11-06T11:04:57.938Z,1004.84
2018-11-06T11:05:57.980Z,1004.67
2018-11-06T11:06:57.918Z,1004.72
2018-11-06T11:07:57.987Z,1004.63
2018-11-06T11:08:57.911Z,1004.00
2018-11-06T11:09:57.917Z,1004.00
2018-11-06T11:10:58.010Z,1004.73
2018-11-06T11:11:57.897Z,1004.24
2018-11-06T11:12:57.919Z,1004.27
2018-11-06T11:13:57.877Z,1004.76
2018-11-06T11:14:57.869Z,1004.78
2018-11-06T11:15:57.865Z,1004.45
2018-11-06T11:16:57.948Z,1004.50
2018-11-06T11:17:57.852Z,1004.65
2018-11-06T11:18:57.859Z,1004.68
2018-11-06T11:19:57.880Z,1004.43
2018-11-06T11:20:57.838Z,1004.27
2018-11-06T11:21:57.866Z,1004.46
2018-11-06T11:22:57.809Z,1004.53
2018-11-06T11:23:57.877Z,1004.64
2018-11-06T11:24:57.790Z,1004.71
2018-11-06T11:25:57.901Z,1004.57
2018-11-06T11:26:57.778Z,1004.42
2018-11-06T11:27:59.856Z,1004.35
2018-11-06T11:28:57.761Z,1004.56
2018-11-06T11:29:57.836Z,1004.54
2018-11-06T11:30:57.746Z,1004.25
2018-11-06T11:31:57.849Z,1004.38
2018-11-06T11:32:57.732Z,1004.42
2018-11-06T11:33:58.779Z,1004.40
2018-11-06T11:34:57.726Z,1004.39
2018-11-06T11:35:57.723Z,1004.52
2018-11-06T11:36:57.698Z,1004.44
2018-11-06T11:37:57.794Z,1004.60
2018-11-06T11:38:57.684Z,1004.59
2018-11-06T11:39:57.801Z,1004.76
2018-11-06T11:40:57.708Z,1005.00
2018-11-06T11:41:57.657Z,1004.70
2018-11-06T11:42:57.728Z,1004.80
2018-11-06T11:43:57.655Z,1004.72
2018-11-06T11:44:57.728Z,1004.42
2018-11-06T11:45:57.715Z,1004.31
2018-11-06T11:46:57.653Z,1004.42
2018-11-06T11:47:57.637Z,1004.44
2018-11-06T11:48:57.659Z,1004.24
2018-11-06T11:49:57.588Z,1004.25
2018-11-06T11:50:57.678Z,1004.11
2018-11-06T11:51:57.584Z,1004.22
2018-11-06T11:52:57.594Z,1004.38
2018-11-06T11:53:57.567Z,1004.31
2018-11-06T11:54:57.599Z,1004.54
2018-11-06T11:55:57.546Z,1004.47
2018-11-06T11:56:57.544Z,1004.46
2018-11-06T11:57:57.535Z,1004.38
2018-11-06T11:58:57.627Z,1004.29
2018-11-06T11:59:57.554Z,1004.32
2018-11-06T12:00:57.538Z,1004.36
2018-11-06T12:01:57.558Z,1004.54
2018-11-06T12:02:57.579Z,1004.48
2018-11-06T12:03:57.491Z,1004.36
2018-11-06T12:04:57.567Z,1004.37
2018-11-06T12:05:57.467Z,1004.34
2018-11-06T12:06:57.597Z,1004.57